Terminal Aerodrome Forecast
Issued by NWS Central Illinois

Home | Current Version | Previous Version | Text Only | Print | Product List | Glossary On
Versions: 1 2 3 4 5 6 7 8 9 10 11 12 13 14 15 16 17
000
FTUS43 KILX 281700
TAFSPI
TAF
KSPI 281733Z 2818/2918 17016G23KT P6SM BKN250
     FM290000 18012KT P6SM SCT020 BKN150
     FM290600 18010KT P6SM BKN020 WS020/23040KT
     FM291200 20013KT P6SM SCT250=

USA.gov is the U.S. government's official web portal to all federal, state and local government web resources and services.